Time;durP1;ratioP1;P1;durP2;ratioP2;P2;SDS_P1;SDS_P2;PMS_P1;PMS_P2;Temp;Humidity;BMP_temperature;BMP_pressure;BME280_temperature;BME280_humidity;BME280_pressure;Samples;Min_cycle;Max_cycle;Signal;HPM_P1;HPM_P2
2021/11/15 00:01:05;;;;;;;0.00;0.00;;;7.50;99.90;;;;;;5069856;28;20107;-82
2021/11/15 00:03:52;;;;;;;0.03;0.03;;;7.50;99.90;;;;;;5166233;27;20391;-82
2021/11/15 00:06:19;;;;;;;0.10;0.10;;;7.40;99.90;;;;;;5131274;28;20162;-84
2021/11/15 00:08:45;;;;;;;0.00;0.00;;;7.50;99.90;;;;;;5131192;28;20489;-82
2021/11/15 00:11:12;;;;;;;0.05;0.05;;;7.50;99.90;;;;;;5131020;28;20032;-81
2021/11/15 00:13:39;;;;;;;0.10;0.10;;;7.40;99.90;;;;;;5131169;28;20039;-82
2021/11/15 00:16:06;;;;;;;0.10;0.10;;;7.40;99.90;;;;;;5147926;28;20053;-81
2021/11/15 00:18:33;;;;;;;0.10;0.10;;;7.50;99.90;;;;;;5148078;28;20501;-85
2021/11/15 00:21:00;;;;;;;0.32;0.32;;;7.40;99.90;;;;;;5147923;28;20032;-82
2021/11/15 00:23:26;;;;;;;0.10;0.10;;;7.40;99.90;;;;;;5147784;28;20503;-82
2021/11/15 00:25:53;;;;;;;0.10;0.10;;;7.40;99.90;;;;;;5147706;28;20070;-85
2021/11/15 00:28:20;;;;;;;0.03;0.03;;;7.40;99.90;;;;;;5147697;28;20043;-84
2021/11/15 00:30:47;;;;;;;0.00;0.00;;;7.40;99.90;;;;;;5147692;28;20060;-85
2021/11/15 00:33:13;;;;;;;0.20;0.20;;;7.40;99.90;;;;;;5130474;28;20134;-82
2021/11/15 00:35:40;;;;;;;0.30;0.25;;;7.30;99.90;;;;;;5130632;28;20050;-85
2021/11/15 00:38:07;;;;;;;0.32;0.32;;;7.30;99.90;;;;;;5130538;28;20035;-85
2021/11/15 00:40:34;;;;;;;0.10;0.10;;;7.30;99.90;;;;;;5147522;27;20043;-85
2021/11/15 00:43:00;;;;;;;0.10;0.10;;;7.20;99.90;;;;;;5147309;28;20061;-85
2021/11/15 00:45:27;;;;;;;0.32;0.32;;;7.20;99.90;;;;;;5130196;28;20491;-81
2021/11/15 00:47:54;;;;;;;0.10;0.10;;;7.30;99.90;;;;;;5130486;28;20445;-85
2021/11/15 00:50:21;;;;;;;0.10;0.10;;;7.20;99.90;;;;;;5129987;28;20031;-81
2021/11/15 00:52:50;;;;;;;0.10;0.10;;;7.20;99.90;;;;;;5147625;28;20035;-82
2021/11/15 00:55:17;;;;;;;0.10;0.10;;;7.20;99.90;;;;;;5146670;28;20408;-82
2021/11/15 00:57:44;;;;;;;0.10;0.10;;;7.20;99.90;;;;;;5147245;28;20043;-82
2021/11/15 01:00:15;;;;;;;0.20;0.20;;;7.20;99.90;;;;;;5129910;28;20047;-83
2021/11/15 01:02:41;;;;;;;0.10;0.10;;;7.10;99.90;;;;;;5147037;28;20082;-84
2021/11/15 01:05:09;;;;;;;0.20;0.20;;;7.10;99.90;;;;;;5146847;28;20470;-85
2021/11/15 01:07:36;;;;;;;0.10;0.10;;;7.20;99.90;;;;;;5130172;28;20082;-82
2021/11/15 01:10:06;;;;;;;0.10;0.10;;;7.10;99.90;;;;;;5130132;28;20118;-85
2021/11/15 01:12:32;;;;;;;0.10;0.10;;;7.00;99.90;;;;;;5147182;28;20047;-85
2021/11/15 01:14:59;;;;;;;0.10;0.10;;;7.00;99.90;;;;;;5117329;28;20112;-85
2021/11/15 01:17:26;;;;;;;0.00;0.00;;;7.00;99.90;;;;;;5149883;28;20055;-82
2021/11/15 01:19:53;;;;;;;0.10;0.10;;;7.00;99.90;;;;;;5133015;28;20058;-82
2021/11/15 01:22:20;;;;;;;0.10;0.10;;;7.00;99.90;;;;;;5115916;28;20039;-85
2021/11/15 01:24:46;;;;;;;0.10;0.10;;;7.00;99.90;;;;;;5099456;28;20093;-81
2021/11/15 01:27:13;;;;;;;0.80;0.55;;;7.00;99.90;;;;;;5132709;28;20035;-82
2021/11/15 01:29:40;;;;;;;0.00;0.00;;;7.00;99.90;;;;;;5099435;28;20404;-84
2021/11/15 01:32:07;;;;;;;0.10;0.10;;;7.00;99.90;;;;;;5149830;28;20040;-82
2021/11/15 01:34:33;;;;;;;0.03;0.03;;;6.90;99.90;;;;;;5132259;28;20043;-85
2021/11/15 01:37:00;;;;;;;0.00;0.00;;;6.90;99.90;;;;;;5116274;28;20061;-82
2021/11/15 01:39:27;;;;;;;0.10;0.10;;;6.90;99.90;;;;;;5115320;28;20051;-82
2021/11/15 01:41:54;;;;;;;0.10;0.10;;;6.80;99.90;;;;;;5098733;28;20077;-85
2021/11/15 01:44:21;;;;;;;0.10;0.10;;;6.80;99.90;;;;;;5115395;28;20031;-85
2021/11/15 01:46:47;;;;;;;0.47;0.30;;;6.80;99.90;;;;;;5116006;28;20036;-82
2021/11/15 01:49:15;;;;;;;0.00;0.00;;;6.80;99.90;;;;;;5149425;28;20040;-82
2021/11/15 01:51:42;;;;;;;0.10;0.10;;;6.80;99.90;;;;;;5116046;28;20047;-82
2021/11/15 01:54:09;;;;;;;0.10;0.10;;;6.80;99.90;;;;;;5132449;28;20479;-82
2021/11/15 01:56:36;;;;;;;0.10;0.10;;;6.80;99.90;;;;;;5115170;28;20510;-82
2021/11/15 01:59:05;;;;;;;0.10;0.10;;;6.70;99.90;;;;;;5098693;28;20043;-82
2021/11/15 02:01:31;;;;;;;0.45;0.45;;;6.70;99.90;;;;;;5114573;28;20050;-82
2021/11/15 02:03:59;;;;;;;0.10;0.10;;;6.70;99.90;;;;;;5115431;28;20039;-82
2021/11/15 02:06:26;;;;;;;0.03;0.03;;;6.70;99.90;;;;;;5132096;28;20074;-85
2021/11/15 02:08:53;;;;;;;0.10;0.10;;;6.70;99.90;;;;;;5132287;28;20499;-83
2021/11/15 02:11:20;;;;;;;0.10;0.10;;;6.70;99.90;;;;;;5115210;28;20032;-85
2021/11/15 02:13:47;;;;;;;0.10;0.10;;;6.70;99.90;;;;;;5115011;28;20109;-85
2021/11/15 02:16:14;;;;;;;0.10;0.10;;;6.80;99.90;;;;;;5114951;28;20040;-82
2021/11/15 02:18:41;;;;;;;0.10;0.10;;;6.80;99.90;;;;;;5115395;28;20054;-83
2021/11/15 02:21:09;;;;;;;0.10;0.10;;;6.80;99.90;;;;;;5131717;28;20492;-83
2021/11/15 02:23:42;;;;;;;0.10;0.10;;;6.70;99.90;;;;;;5097950;28;20031;-85
2021/11/15 02:26:11;;;;;;;0.10;0.10;;;6.70;99.90;;;;;;5147630;28;20047;-86
2021/11/15 02:28:41;;;;;;;0.08;0.08;;;6.70;99.90;;;;;;5131511;28;20031;-85
2021/11/15 02:31:11;;;;;;;0.10;0.10;;;6.90;99.90;;;;;;5131486;28;20047;-85
2021/11/15 02:33:38;;;;;;;0.10;0.10;;;6.70;99.90;;;;;;5131539;28;20059;-85
2021/11/15 02:36:06;;;;;;;0.22;0.20;;;6.70;99.90;;;;;;5098018;28;20578;-82
2021/11/15 02:38:33;;;;;;;0.10;0.10;;;6.80;99.90;;;;;;5114574;28;20039;-82
2021/11/15 02:41:00;;;;;;;0.10;0.10;;;6.80;99.90;;;;;;5114356;28;20484;-82
2021/11/15 02:43:28;;;;;;;0.10;0.10;;;6.80;99.90;;;;;;5113984;28;20035;-81
2021/11/15 02:45:55;;;;;;;0.10;0.10;;;6.80;99.90;;;;;;5131440;28;20040;-85
2021/11/15 02:48:25;;;;;;;0.10;0.10;;;6.80;99.90;;;;;;5148408;28;20051;-86
2021/11/15 02:50:52;;;;;;;0.10;0.10;;;6.80;99.90;;;;;;5131161;28;20059;-82
2021/11/15 02:53:20;;;;;;;0.10;0.10;;;6.70;99.90;;;;;;5113946;28;20446;-84
2021/11/15 02:55:47;;;;;;;0.15;0.15;;;6.90;99.90;;;;;;5114343;28;20050;-83
2021/11/15 02:58:15;;;;;;;0.17;0.17;;;6.70;99.90;;;;;;5114224;28;20039;-85
2021/11/15 03:01:04;;;;;;;0.10;0.10;;;6.80;99.90;;;;;;5130918;28;20070;-84
2021/11/15 03:03:31;;;;;;;0.35;0.30;;;6.80;99.90;;;;;;5130416;28;20500;-82
2021/11/15 03:05:59;;;;;;;0.08;0.08;;;6.80;99.90;;;;;;5114122;28;20091;-85
2021/11/15 03:08:26;;;;;;;1.77;0.32;;;6.70;99.90;;;;;;5130907;28;20126;-83
2021/11/15 03:10:58;;;;;;;0.20;0.20;;;6.70;99.90;;;;;;5114011;28;20035;-82
2021/11/15 03:13:30;;;;;;;0.13;0.13;;;6.70;99.90;;;;;;5114001;28;20484;-85
2021/11/15 03:15:58;;;;;;;0.10;0.10;;;6.70;99.90;;;;;;5147888;28;20039;-82
2021/11/15 03:18:28;;;;;;;0.63;0.40;;;6.80;99.90;;;;;;5130659;28;20043;-82
2021/11/15 03:21:01;;;;;;;0.10;0.10;;;6.80;99.90;;;;;;5130655;28;20140;-82
2021/11/15 03:23:30;;;;;;;0.10;0.10;;;6.70;99.90;;;;;;5130487;28;20040;-84
2021/11/15 03:25:57;;;;;;;0.15;0.15;;;6.70;99.90;;;;;;5130536;28;20108;-86
2021/11/15 03:28:32;;;;;;;0.08;0.08;;;6.70;99.90;;;;;;5096816;28;20035;-82
2021/11/15 03:31:02;;;;;;;0.10;0.10;;;6.70;99.90;;;;;;5130849;28;20035;-85
2021/11/15 03:33:35;;;;;;;0.30;0.30;;;6.70;99.90;;;;;;5111471;28;20035;-82
2021/11/15 03:36:03;;;;;;;0.10;0.10;;;6.70;99.90;;;;;;5127207;28;20605;-82
2021/11/15 03:38:30;;;;;;;0.00;0.00;;;6.60;99.90;;;;;;5109613;28;20105;-85
2021/11/15 03:40:57;;;;;;;0.10;0.10;;;6.70;99.90;;;;;;5118562;28;20250;-85
2021/11/15 03:43:24;;;;;;;0.00;0.00;;;6.70;99.90;;;;;;5109955;28;20036;-84
2021/11/15 03:45:51;;;;;;;0.00;0.00;;;6.70;99.90;;;;;;5077146;28;20122;-81
2021/11/15 03:48:20;;;;;;;0.10;0.10;;;6.70;99.90;;;;;;5126668;28;20515;-82
2021/11/15 03:50:48;;;;;;;0.45;0.45;;;6.70;99.90;;;;;;5109670;28;20040;-85
2021/11/15 03:53:15;;;;;;;0.00;0.00;;;6.70;99.90;;;;;;5093518;28;20043;-82
2021/11/15 03:55:42;;;;;;;0.10;0.10;;;6.70;99.90;;;;;;5093083;28;20097;-85
2021/11/15 03:58:09;;;;;;;0.10;0.10;;;6.70;99.90;;;;;;5093722;28;20036;-82
2021/11/15 04:00:39;;;;;;;0.10;0.10;;;6.70;99.90;;;;;;5076571;28;20385;-82
2021/11/15 04:03:14;;;;;;;0.10;0.10;;;6.70;99.90;;;;;;5126636;28;20636;-85
2021/11/15 04:05:45;;;;;;;0.10;0.10;;;6.70;99.90;;;;;;5109602;28;20044;-83
2021/11/15 04:08:11;;;;;;;0.10;0.10;;;6.70;99.90;;;;;;5126699;28;20404;-82
2021/11/15 04:10:43;;;;;;;0.13;0.13;;;6.60;99.90;;;;;;5093051;28;20122;-82
2021/11/15 04:13:15;;;;;;;0.10;0.10;;;6.70;99.90;;;;;;5126576;28;20032;-82
2021/11/15 04:15:42;;;;;;;0.10;0.10;;;6.70;99.90;;;;;;5109542;28;20519;-85
2021/11/15 04:18:11;;;;;;;0.10;0.10;;;6.60;99.90;;;;;;5093015;28;20097;-82
2021/11/15 04:20:38;;;;;;;5.47;0.52;;;7.00;99.90;;;;;;5109260;28;20070;-86
2021/11/15 04:23:05;;;;;;;0.10;0.10;;;6.60;99.90;;;;;;5109736;28;20040;-85
2021/11/15 04:25:32;;;;;;;0.10;0.10;;;6.60;99.90;;;;;;5093078;28;20028;-85
2021/11/15 04:27:59;;;;;;;0.10;0.10;;;6.60;99.90;;;;;;5076701;28;20071;-82
2021/11/15 04:30:30;;;;;;;0.10;0.10;;;6.60;99.90;;;;;;5093064;28;20040;-85
2021/11/15 04:33:00;;;;;;;0.30;0.30;;;6.60;99.90;;;;;;5093952;28;20047;-82
2021/11/15 04:35:27;;;;;;;0.10;0.10;;;6.80;99.90;;;;;;5109469;28;20055;-82
2021/11/15 04:37:55;;;;;;;0.32;0.20;;;6.60;99.90;;;;;;5092164;28;20040;-84
2021/11/15 04:40:23;;;;;;;0.10;0.10;;;6.60;99.90;;;;;;5126256;28;20044;-82
2021/11/15 04:42:49;;;;;;;0.10;0.10;;;6.60;99.90;;;;;;5108888;28;20048;-85
2021/11/15 04:45:16;;;;;;;0.10;0.10;;;6.60;99.90;;;;;;5109708;28;20043;-85
2021/11/15 04:47:43;;;;;;;0.10;0.10;;;6.60;99.90;;;;;;5076171;28;20093;-85
2021/11/15 04:50:11;;;;;;;0.10;0.10;;;6.70;99.90;;;;;;5112593;28;20048;-82
2021/11/15 04:52:38;;;;;;;0.10;0.10;;;6.60;99.90;;;;;;5112736;28;20047;-82
2021/11/15 04:55:08;;;;;;;0.10;0.10;;;6.60;99.90;;;;;;5096402;28;20044;-85
2021/11/15 04:57:36;;;;;;;0.10;0.10;;;6.60;99.90;;;;;;5112716;28;20496;-84
2021/11/15 05:00:17;;;;;;;1.08;0.22;;;6.60;99.90;;;;;;5112984;28;20044;-85
2021/11/15 05:02:48;;;;;;;0.10;0.10;;;6.50;99.90;;;;;;5129320;28;20081;-85
2021/11/15 05:05:17;;;;;;;0.10;0.10;;;6.50;99.90;;;;;;5097018;28;20127;-82
2021/11/15 05:07:45;;;;;;;0.15;0.15;;;6.50;99.90;;;;;;5112808;28;20036;-85
2021/11/15 05:10:13;;;;;;;0.00;0.00;;;7.00;99.90;;;;;;5113257;28;20079;-85
2021/11/15 05:12:40;;;;;;;0.10;0.10;;;6.40;99.90;;;;;;5129799;28;20043;-85
2021/11/15 05:15:10;;;;;;;0.10;0.10;;;6.40;99.90;;;;;;5096525;28;20043;-83
2021/11/15 05:17:37;;;;;;;0.10;0.10;;;6.40;99.90;;;;;;5112389;28;20040;-84
2021/11/15 05:20:07;;;;;;;0.10;0.10;;;6.50;99.90;;;;;;5095915;28;20047;-85
2021/11/15 05:22:35;;;;;;;0.40;0.30;;;6.50;99.90;;;;;;5095959;28;20090;-82
2021/11/15 05:25:02;;;;;;;0.10;0.10;;;6.40;99.90;;;;;;5112460;28;20138;-82
2021/11/15 05:27:29;;;;;;;0.10;0.10;;;6.40;99.90;;;;;;5095661;28;20488;-82
2021/11/15 05:29:57;;;;;;;0.10;0.10;;;6.40;99.90;;;;;;5095293;28;20092;-85
2021/11/15 05:32:24;;;;;;;0.00;0.00;;;6.40;99.90;;;;;;5112291;28;20496;-83
2021/11/15 05:34:51;;;;;;;0.10;0.10;;;6.40;99.90;;;;;;5111793;28;20040;-85
2021/11/15 05:37:17;;;;;;;0.10;0.10;;;6.50;99.90;;;;;;5112253;28;20051;-85
2021/11/15 05:39:46;;;;;;;0.10;0.10;;;6.40;99.90;;;;;;5094888;28;20048;-81
2021/11/15 05:42:13;;;;;;;0.10;0.10;;;6.50;99.90;;;;;;5112113;28;20047;-84
2021/11/15 05:44:39;;;;;;;0.20;0.20;;;6.40;99.90;;;;;;5112077;28;20040;-82
2021/11/15 05:47:06;;;;;;;0.20;0.20;;;6.40;99.90;;;;;;5095324;28;20128;-82
2021/11/15 05:49:33;;;;;;;0.10;0.10;;;6.40;99.90;;;;;;5095193;28;20033;-82
2021/11/15 05:52:00;;;;;;;0.10;0.10;;;6.40;99.90;;;;;;5095413;28;20047;-82
2021/11/15 05:54:27;;;;;;;0.10;0.10;;;6.40;99.90;;;;;;5111868;28;20044;-82
2021/11/15 05:56:53;;;;;;;0.10;0.10;;;6.40;99.90;;;;;;5111711;28;20040;-82
2021/11/15 05:59:20;;;;;;;0.10;0.10;;;6.40;99.90;;;;;;5078472;28;20036;-82
2021/11/15 06:01:47;;;;;;;0.00;0.00;;;6.40;99.90;;;;;;5094633;28;20087;-81
2021/11/15 06:04:14;;;;;;;0.10;0.10;;;6.40;99.90;;;;;;5095279;28;20048;-82
2021/11/15 06:06:40;;;;;;;0.10;0.10;;;6.30;99.90;;;;;;5111680;28;20036;-85
2021/11/15 06:09:07;;;;;;;0.10;0.10;;;6.30;99.90;;;;;;5095644;28;20050;-85
2021/11/15 06:11:34;;;;;;;0.10;0.10;;;6.40;99.90;;;;;;5095307;28;20079;-82
2021/11/15 06:14:00;;;;;;;0.10;0.10;;;6.40;99.90;;;;;;5095055;28;20131;-85
2021/11/15 06:16:27;;;;;;;0.10;0.10;;;6.40;99.90;;;;;;5112021;28;20058;-85
2021/11/15 06:18:54;;;;;;;0.00;0.00;;;6.30;99.90;;;;;;5112097;28;20064;-83
2021/11/15 06:21:20;;;;;;;0.10;0.10;;;6.40;99.90;;;;;;5111586;28;20559;-84
2021/11/15 06:23:47;;;;;;;0.00;0.00;;;6.50;99.90;;;;;;5080054;28;20039;-84
2021/11/15 06:26:14;;;;;;;0.10;0.10;;;6.40;99.90;;;;;;5094750;28;20382;-82
2021/11/15 06:28:46;;;;;;;0.00;0.00;;;6.30;99.90;;;;;;5078528;28;20040;-85
2021/11/15 06:31:14;;;;;;;0.10;0.10;;;6.30;99.90;;;;;;5095238;28;20503;-82
2021/11/15 06:33:41;;;;;;;0.10;0.10;;;6.30;99.90;;;;;;5094488;28;20036;-82
2021/11/15 06:36:08;;;;;;;0.10;0.10;;;6.30;99.90;;;;;;5094442;28;20044;-85
2021/11/15 06:38:35;;;;;;;0.10;0.10;;;6.30;99.90;;;;;;5111296;28;20059;-82
2021/11/15 06:41:02;;;;;;;0.10;0.10;;;6.30;99.90;;;;;;5094048;28;20389;-84
2021/11/15 06:43:28;;;;;;;0.10;0.10;;;6.70;99.90;;;;;;5094849;28;20502;-82
2021/11/15 06:45:55;;;;;;;0.10;0.10;;;6.30;99.90;;;;;;5110512;28;20150;-82
2021/11/15 06:48:22;;;;;;;0.05;0.05;;;6.50;99.90;;;;;;5093953;28;20043;-82
2021/11/15 06:50:49;;;;;;;0.10;0.10;;;6.30;99.90;;;;;;5110240;28;20075;-84
2021/11/15 06:53:16;;;;;;;0.10;0.10;;;6.30;99.90;;;;;;5111262;28;20044;-82
2021/11/15 06:55:44;;;;;;;0.10;0.10;;;6.30;99.90;;;;;;5094408;28;20039;-85
2021/11/15 06:58:10;;;;;;;0.10;0.10;;;6.30;99.90;;;;;;5077785;28;20043;-82
2021/11/15 07:00:37;;;;;;;0.10;0.10;;;6.30;99.90;;;;;;5094024;28;20044;-85
2021/11/15 07:03:04;;;;;;;0.10;0.10;;;6.30;99.90;;;;;;5109905;28;20127;-83
2021/11/15 07:05:31;;;;;;;0.10;0.10;;;6.40;99.90;;;;;;5101762;28;20156;-81
2021/11/15 07:07:58;;;;;;;0.10;0.10;;;6.30;99.90;;;;;;5093916;28;20443;-82
2021/11/15 07:10:24;;;;;;;0.10;0.10;;;6.40;99.90;;;;;;5093700;28;20074;-84
2021/11/15 07:12:51;;;;;;;0.10;0.10;;;6.30;99.90;;;;;;5092567;28;20084;-81
2021/11/15 07:15:18;;;;;;;0.10;0.10;;;6.40;99.90;;;;;;5110205;28;20104;-84
2021/11/15 07:17:46;;;;;;;0.10;0.10;;;6.40;99.90;;;;;;5109981;28;20048;-85
2021/11/15 07:20:13;;;;;;;0.10;0.10;;;6.30;99.90;;;;;;5102334;28;20047;-85
2021/11/15 07:22:40;;;;;;;0.00;0.00;;;6.40;99.90;;;;;;5110560;28;20040;-85
2021/11/15 07:25:07;;;;;;;0.10;0.10;;;6.40;99.90;;;;;;5093296;28;20425;-85
2021/11/15 07:27:34;;;;;;;0.10;0.10;;;6.40;99.90;;;;;;5076801;28;20040;-81
2021/11/15 07:30:02;;;;;;;0.10;0.10;;;6.30;99.90;;;;;;5128507;28;20042;-84
2021/11/15 07:32:29;;;;;;;0.10;0.10;;;6.30;99.90;;;;;;5110055;28;20059;-82
2021/11/15 07:34:56;;;;;;;0.03;0.03;;;6.40;99.90;;;;;;5111946;28;20035;-85
2021/11/15 07:37:23;;;;;;;0.10;0.10;;;6.30;99.90;;;;;;5095446;28;20047;-85
2021/11/15 07:39:50;;;;;;;0.68;0.20;;;6.30;99.90;;;;;;5103811;28;20051;-81
2021/11/15 07:42:18;;;;;;;0.10;0.10;;;6.30;99.90;;;;;;5111775;28;20040;-84
2021/11/15 07:44:46;;;;;;;0.10;0.10;;;6.30;99.90;;;;;;5090583;28;20028;-81
2021/11/15 07:47:14;;;;;;;0.10;0.10;;;6.30;99.90;;;;;;5107375;28;20036;-82
2021/11/15 07:49:43;;;;;;;0.10;0.10;;;6.30;99.90;;;;;;5109691;28;20032;-85
2021/11/15 07:52:10;;;;;;;0.10;0.10;;;6.30;99.90;;;;;;5109480;28;20044;-84
2021/11/15 07:54:36;;;;;;;0.10;0.10;;;6.30;99.90;;;;;;5093420;28;20047;-82
2021/11/15 07:57:06;;;;;;;0.10;0.10;;;6.30;99.90;;;;;;5109556;28;20028;-84
2021/11/15 07:59:32;;;;;;;0.40;0.40;;;6.30;99.90;;;;;;5093559;28;20044;-82
2021/11/15 08:01:59;;;;;;;0.05;0.05;;;6.30;99.90;;;;;;5075758;28;20056;-84
2021/11/15 08:04:26;;;;;;;0.10;0.10;;;6.30;99.90;;;;;;5105122;28;20040;-82
2021/11/15 08:06:53;;;;;;;0.10;0.10;;;6.10;99.90;;;;;;5105761;28;20027;-82
2021/11/15 08:09:20;;;;;;;0.10;0.10;;;6.30;99.90;;;;;;5129659;28;20035;-85
2021/11/15 08:11:50;;;;;;;0.10;0.10;;;6.30;99.90;;;;;;5113226;28;20039;-86
2021/11/15 08:14:17;;;;;;;0.00;0.00;;;6.50;99.90;;;;;;5130103;28;20488;-81
2021/11/15 08:16:46;;;;;;;0.10;0.10;;;6.90;99.90;;;;;;5129760;28;20239;-83
2021/11/15 08:19:14;;;;;;;0.10;0.10;;;6.30;99.90;;;;;;5113328;28;20039;-83
2021/11/15 08:21:41;;;;;;;2.38;0.75;;;6.30;99.90;;;;;;5128346;28;20492;-83
2021/11/15 08:24:17;;;;;;;0.08;0.08;;;6.40;99.90;;;;;;5081342;28;20042;-83
2021/11/15 08:26:56;;;;;;;0.10;0.10;;;6.30;99.90;;;;;;5128959;28;20043;-83
2021/11/15 08:29:25;;;;;;;0.08;0.08;;;6.30;99.90;;;;;;5129352;28;20059;-84
2021/11/15 08:31:56;;;;;;;0.10;0.10;;;6.30;99.90;;;;;;5113410;28;20119;-83
2021/11/15 08:34:23;;;;;;;0.10;0.10;;;6.30;99.90;;;;;;5130608;28;20407;-82
2021/11/15 08:36:56;;;;;;;0.10;0.10;;;6.30;99.90;;;;;;5117119;28;20047;-84
2021/11/15 08:39:26;;;;;;;0.00;0.00;;;6.30;99.90;;;;;;5124181;28;20036;-84
2021/11/15 08:41:56;;;;;;;0.15;0.15;;;6.30;99.90;;;;;;5112912;28;20441;-84
2021/11/15 08:44:23;;;;;;;0.10;0.10;;;6.30;99.90;;;;;;5115704;28;20032;-84
2021/11/15 08:46:52;;;;;;;0.10;0.10;;;6.30;99.90;;;;;;5116640;28;20468;-82
2021/11/15 08:49:21;;;;;;;0.10;0.10;;;6.30;99.90;;;;;;5112808;28;20538;-83
2021/11/15 08:51:49;;;;;;;0.30;0.30;;;6.30;99.90;;;;;;5124132;28;20040;-82
2021/11/15 08:54:18;;;;;;;0.10;0.10;;;7.00;99.90;;;;;;5124606;28;20523;-83
2021/11/15 08:56:47;;;;;;;0.10;0.10;;;6.30;99.90;;;;;;5133257;28;20085;-82
2021/11/15 08:59:14;;;;;;;0.17;0.17;;;6.80;99.90;;;;;;5116191;28;20423;-83
2021/11/15 09:01:42;;;;;;;0.30;0.30;;;6.30;99.90;;;;;;5116155;28;20093;-83
2021/11/15 09:04:09;;;;;;;0.20;0.20;;;6.30;99.90;;;;;;5116309;28;20104;-84
2021/11/15 09:06:37;;;;;;;0.10;0.10;;;6.40;99.90;;;;;;5099985;28;20031;-84
2021/11/15 09:09:07;;;;;;;0.10;0.10;;;6.30;99.90;;;;;;5133707;28;20038;-84
2021/11/15 09:11:34;;;;;;;0.10;0.10;;;6.20;99.90;;;;;;5116904;28;20044;-85
2021/11/15 09:14:00;;;;;;;0.10;0.10;;;6.20;99.90;;;;;;5116463;28;20044;-85
2021/11/15 09:16:27;;;;;;;0.05;0.05;;;6.20;99.90;;;;;;5117378;28;20043;-82
2021/11/15 09:18:54;;;;;;;0.10;0.10;;;6.20;99.90;;;;;;5101169;28;20032;-84
2021/11/15 09:21:21;;;;;;;0.10;0.10;;;6.30;99.90;;;;;;5116067;28;20892;-83
2021/11/15 09:23:48;;;;;;;0.10;0.10;;;6.20;99.90;;;;;;5132943;28;20483;-87
2021/11/15 09:26:18;;;;;;;0.10;0.10;;;6.20;99.90;;;;;;5100244;28;20036;-86
2021/11/15 09:28:46;;;;;;;0.10;0.10;;;6.20;99.90;;;;;;5116793;28;20816;-86
2021/11/15 09:31:13;;;;;;;0.10;0.10;;;6.20;99.90;;;;;;5150263;28;20046;-86
2021/11/15 09:33:40;;;;;;;0.08;0.08;;;6.20;99.90;;;;;;5100103;28;20431;-86
2021/11/15 09:36:07;;;;;;;0.10;0.10;;;6.20;99.90;;;;;;5099546;28;20043;-86
2021/11/15 09:38:36;;;;;;;0.10;0.10;;;6.20;99.90;;;;;;5116012;28;20040;-85
2021/11/15 09:41:04;;;;;;;0.10;0.10;;;6.20;99.90;;;;;;5117271;28;20036;-86
2021/11/15 09:43:35;;;;;;;0.10;0.10;;;6.30;99.90;;;;;;5115865;28;20043;-86
2021/11/15 09:46:11;;;;;;;0.10;0.10;;;6.10;99.90;;;;;;5150031;28;20415;-86
2021/11/15 09:48:44;;;;;;;0.10;0.10;;;6.10;99.90;;;;;;5132914;28;20040;-85
2021/11/15 09:51:12;;;;;;;0.10;0.10;;;6.20;99.90;;;;;;5132777;28;20044;-87
2021/11/15 09:53:38;;;;;;;0.10;0.10;;;6.20;99.90;;;;;;5133355;28;20407;-86
2021/11/15 09:56:08;;;;;;;0.43;0.43;;;6.10;99.90;;;;;;5099638;28;20046;-86
2021/11/15 09:58:36;;;;;;;0.25;0.25;;;6.40;99.90;;;;;;5115986;28;20042;-86
2021/11/15 10:01:05;;;;;;;0.10;0.10;;;6.60;99.90;;;;;;5116492;28;20452;-86
2021/11/15 10:03:34;;;;;;;0.10;0.10;;;6.20;99.90;;;;;;5132711;28;20051;-86
2021/11/15 10:06:01;;;;;;;0.10;0.10;;;6.20;99.90;;;;;;5132839;28;20040;-85
2021/11/15 10:08:42;;;;;;;0.10;0.10;;;6.20;99.90;;;;;;5115871;28;20043;-86
2021/11/15 10:11:09;;;;;;;0.20;0.20;;;6.30;99.90;;;;;;5133380;28;20036;-85
2021/11/15 10:13:39;;;;;;;0.10;0.10;;;6.20;99.90;;;;;;5115932;28;20046;-86
2021/11/15 10:16:26;;;;;;;0.10;0.10;;;6.60;99.90;;;;;;5129576;28;20062;-85
2021/11/15 10:18:57;;;;;;;0.10;0.10;;;6.20;99.90;;;;;;5132519;28;20040;-86
2021/11/15 10:21:59;;;;;;;0.10;0.10;;;6.20;99.90;;;;;;5126023;28;20039;-86
2021/11/15 10:24:35;;;;;;;0.10;0.10;;;6.20;99.90;;;;;;5094898;28;20048;-86
2021/11/15 10:27:24;;;;;;;0.10;0.10;;;6.30;99.90;;;;;;5128104;28;20108;-86
2021/11/15 10:29:51;;;;;;;0.10;0.10;;;6.30;99.90;;;;;;5132793;28;20483;-86
2021/11/15 10:32:28;;;;;;;0.10;0.10;;;6.20;99.90;;;;;;5131974;28;20047;-86
2021/11/15 10:35:01;;;;;;;0.10;0.10;;;6.20;99.90;;;;;;5131731;28;20926;-86
2021/11/15 10:37:30;;;;;;;0.10;0.10;;;6.30;99.90;;;;;;5131880;28;20046;-86
2021/11/15 10:40:06;;;;;;;0.10;0.10;;;6.50;99.90;;;;;;5132089;28;20427;-86
2021/11/15 10:42:36;;;;;;;0.10;0.10;;;6.30;99.90;;;;;;5131711;28;20040;-86
2021/11/15 10:45:09;;;;;;;0.10;0.10;;;6.30;99.90;;;;;;5132526;28;20513;-86
2021/11/15 10:47:48;;;;;;;0.20;0.20;;;6.20;99.90;;;;;;5121334;28;20062;-86
2021/11/15 10:50:31;;;;;;;0.05;0.05;;;6.20;99.90;;;;;;5111926;28;20062;-86
2021/11/15 10:53:11;;;;;;;0.10;0.10;;;6.20;99.90;;;;;;5111750;28;20478;-87
2021/11/15 10:55:44;;;;;;;0.82;0.80;;;6.20;99.90;;;;;;5113755;28;20410;-86
2021/11/15 10:58:16;;;;;;;0.10;0.10;;;6.70;99.90;;;;;;5111417;28;20051;-85
2021/11/15 11:00:51;;;;;;;0.10;0.10;;;6.20;99.90;;;;;;5078509;28;20397;-86
2021/11/15 11:03:21;;;;;;;0.10;0.10;;;6.20;99.90;;;;;;5100585;28;20131;-85
2021/11/15 11:05:52;;;;;;;0.10;0.10;;;6.20;99.90;;;;;;5133033;28;20043;-86
2021/11/15 11:08:20;;;;;;;0.10;0.10;;;6.30;99.90;;;;;;5132298;28;20077;-86
2021/11/15 11:11:06;;;;;;;0.10;0.10;;;6.30;99.90;;;;;;5132406;28;20039;-86
2021/11/15 11:13:59;;;;;;;0.17;0.17;;;6.30;99.90;;;;;;5131291;28;20047;-83
2021/11/15 11:16:47;;;;;;;0.10;0.10;;;6.30;99.90;;;;;;5122764;28;20047;-82
2021/11/15 11:19:36;;;;;;;0.10;0.10;;;6.30;99.90;;;;;;5139328;28;20043;-85
2021/11/15 11:27:29;;;;;;;0.10;0.10;;;6.30;99.90;;;;;;5126963;28;20790;-82
2021/11/15 11:29:56;;;;;;;0.10;0.10;;;6.30;99.90;;;;;;5118977;28;20036;-83
2021/11/15 11:32:26;;;;;;;0.10;0.10;;;6.30;99.90;;;;;;5123372;28;20112;-82
2021/11/15 11:34:56;;;;;;;0.10;0.10;;;6.30;99.90;;;;;;5113085;28;20132;-83
2021/11/15 11:37:26;;;;;;;0.73;0.73;;;6.30;99.90;;;;;;5116524;28;20077;-82
2021/11/15 11:39:54;;;;;;;0.10;0.10;;;6.60;99.90;;;;;;5120599;28;20152;-82
2021/11/15 11:42:23;;;;;;;0.10;0.10;;;6.30;99.90;;;;;;5124626;28;20047;-82
2021/11/15 11:44:52;;;;;;;0.10;0.10;;;6.30;99.90;;;;;;5109962;28;20032;-83
2021/11/15 11:47:20;;;;;;;0.10;0.10;;;6.40;99.90;;;;;;5093908;28;20085;-83
2021/11/15 11:49:47;;;;;;;0.20;0.20;;;6.70;99.90;;;;;;5092839;28;20036;-82
2021/11/15 11:52:17;;;;;;;0.10;0.10;;;6.30;99.90;;;;;;5093075;28;20040;-82
2021/11/15 11:54:46;;;;;;;0.10;0.10;;;6.30;99.90;;;;;;5114875;28;20119;-83
2021/11/15 11:57:29;;;;;;;0.10;0.10;;;6.30;99.90;;;;;;5135374;28;20036;-83
2021/11/15 11:59:57;;;;;;;0.10;0.10;;;6.80;99.90;;;;;;5129672;28;20043;-83
2021/11/15 12:02:29;;;;;;;0.10;0.10;;;6.40;99.90;;;;;;5120116;28;20048;-83
2021/11/15 12:05:00;;;;;;;0.10;0.10;;;6.50;99.90;;;;;;5121129;28;20082;-82
2021/11/15 12:07:37;;;;;;;2.05;0.80;;;6.40;99.90;;;;;;5122497;28;20036;-83
2021/11/15 12:10:09;;;;;;;0.10;0.10;;;6.40;99.90;;;;;;5130104;28;20032;-83
2021/11/15 12:12:51;;;;;;;0.10;0.10;;;6.30;99.90;;;;;;5129502;28;20060;-83
2021/11/15 12:15:55;;;;;;;0.65;0.30;;;6.40;99.90;;;;;;5130031;28;20134;-83
2021/11/15 12:18:26;;;;;;;7.78;0.38;;;6.40;99.90;;;;;;5129989;28;20039;-83
2021/11/15 12:21:03;;;;;;;0.10;0.10;;;6.40;99.90;;;;;;5136558;28;20164;-82
2021/11/15 12:23:31;;;;;;;0.10;0.10;;;6.40;99.90;;;;;;5109258;28;20439;-81
2021/11/15 12:26:06;;;;;;;0.10;0.10;;;6.30;99.90;;;;;;5106584;28;20043;-83
2021/11/15 12:28:35;;;;;;;0.15;0.15;;;6.30;99.90;;;;;;5126744;28;20154;-83
2021/11/15 12:31:03;;;;;;;0.10;0.10;;;6.30;99.90;;;;;;5129944;28;20101;-83
2021/11/15 12:33:32;;;;;;;0.10;0.10;;;6.20;99.90;;;;;;5129825;28;20040;-83
2021/11/15 12:36:04;;;;;;;0.10;0.10;;;6.30;99.90;;;;;;5117625;28;20381;-84
2021/11/15 12:38:53;;;;;;;0.03;0.03;;;6.20;99.90;;;;;;5116466;28;20043;-82
2021/11/15 12:41:24;;;;;;;0.80;0.15;;;6.20;99.90;;;;;;5129806;28;20043;-83
2021/11/15 12:44:00;;;;;;;0.10;0.10;;;6.20;99.90;;;;;;5120184;28;20044;-83
2021/11/15 12:47:04;;;;;;;0.10;0.10;;;6.20;99.90;;;;;;5112233;28;20036;-84
2021/11/15 12:49:44;;;;;;;0.10;0.10;;;6.20;99.90;;;;;;5109821;28;20067;-85
2021/11/15 12:52:14;;;;;;;0.10;0.10;;;6.20;99.90;;;;;;5109123;28;20059;-83
2021/11/15 12:54:52;;;;;;;0.10;0.10;;;6.20;99.90;;;;;;5143606;28;20047;-84
2021/11/15 12:57:19;;;;;;;0.10;0.10;;;6.30;99.90;;;;;;5146697;28;20149;-83
2021/11/15 12:59:58;;;;;;;0.10;0.10;;;6.70;99.90;;;;;;5129209;28;20134;-84
2021/11/15 13:02:26;;;;;;;0.10;0.10;;;6.30;99.90;;;;;;5146217;28;20073;-84
2021/11/15 13:04:53;;;;;;;0.15;0.15;;;6.20;99.90;;;;;;5129128;28;20036;-84
2021/11/15 13:07:20;;;;;;;0.10;0.10;;;6.10;99.90;;;;;;5129076;28;20488;-83
2021/11/15 13:09:51;;;;;;;0.15;0.15;;;6.10;99.90;;;;;;5113185;28;20122;-84
2021/11/15 13:12:19;;;;;;;0.10;0.10;;;6.10;99.90;;;;;;5117382;28;20043;-84
2021/11/15 13:14:47;;;;;;;0.10;0.10;;;6.20;99.90;;;;;;5132723;28;20043;-83